sensor_id;sensor_type;location;lat;lon;timestamp;temperature;humidity
57552;DHT22;43379;48.160;14.036;2023-03-01T00:01:23;2.80;93.50
57552;DHT22;43379;48.160;14.036;2023-03-01T00:03:49;2.80;93.80
57552;DHT22;43379;48.160;14.036;2023-03-01T00:06:14;2.80;93.80
57552;DHT22;43379;48.160;14.036;2023-03-01T00:08:41;2.80;93.60
57552;DHT22;43379;48.160;14.036;2023-03-01T00:11:15;2.70;93.80
57552;DHT22;43379;48.160;14.036;2023-03-01T00:13:43;2.70;93.80
57552;DHT22;43379;48.160;14.036;2023-03-01T00:16:18;2.70;93.90
57552;DHT22;43379;48.160;14.036;2023-03-01T00:18:45;2.70;93.80
57552;DHT22;43379;48.160;14.036;2023-03-01T00:21:11;2.70;93.80
57552;DHT22;43379;48.160;14.036;2023-03-01T00:23:37;2.60;94.10
57552;DHT22;43379;48.160;14.036;2023-03-01T00:26:09;2.60;94.00
57552;DHT22;43379;48.160;14.036;2023-03-01T00:28:35;2.60;94.10
57552;DHT22;43379;48.160;14.036;2023-03-01T00:31:09;2.50;94.00
57552;DHT22;43379;48.160;14.036;2023-03-01T00:33:35;2.60;94.00
57552;DHT22;43379;48.160;14.036;2023-03-01T00:36:01;2.60;93.80
57552;DHT22;43379;48.160;14.036;2023-03-01T00:38:27;2.50;94.00
57552;DHT22;43379;48.160;14.036;2023-03-01T00:40:53;2.50;94.10
57552;DHT22;43379;48.160;14.036;2023-03-01T00:43:19;2.50;93.80
57552;DHT22;43379;48.160;14.036;2023-03-01T00:45:45;2.50;94.00
57552;DHT22;43379;48.160;14.036;2023-03-01T00:48:10;2.40;94.20
57552;DHT22;43379;48.160;14.036;2023-03-01T00:50:36;2.40;94.10
57552;DHT22;43379;48.160;14.036;2023-03-01T00:53:02;2.40;94.20
57552;DHT22;43379;48.160;14.036;2023-03-01T00:55:27;2.40;94.40
57552;DHT22;43379;48.160;14.036;2023-03-01T00:57:53;2.30;94.30
57552;DHT22;43379;48.160;14.036;2023-03-01T01:00:20;2.40;94.30
57552;DHT22;43379;48.160;14.036;2023-03-01T01:02:46;2.40;94.40
57552;DHT22;43379;48.160;14.036;2023-03-01T01:05:12;2.40;94.20
57552;DHT22;43379;48.160;14.036;2023-03-01T01:07:38;2.40;94.40
57552;DHT22;43379;48.160;14.036;2023-03-01T01:10:04;2.40;94.20
57552;DHT22;43379;48.160;14.036;2023-03-01T01:12:30;2.30;94.30
57552;DHT22;43379;48.160;14.036;2023-03-01T01:14:56;2.20;94.90
57552;DHT22;43379;48.160;14.036;2023-03-01T01:17:22;2.00;95.20
57552;DHT22;43379;48.160;14.036;2023-03-01T01:19:48;1.90;95.90
57552;DHT22;43379;48.160;14.036;2023-03-01T01:22:13;1.90;95.50
57552;DHT22;43379;48.160;14.036;2023-03-01T01:24:39;1.80;95.60
57552;DHT22;43379;48.160;14.036;2023-03-01T01:27:04;1.70;95.80
57552;DHT22;43379;48.160;14.036;2023-03-01T01:29:32;1.70;95.90
57552;DHT22;43379;48.160;14.036;2023-03-01T01:31:58;1.60;96.00
57552;DHT22;43379;48.160;14.036;2023-03-01T01:34:24;1.50;96.10
57552;DHT22;43379;48.160;14.036;2023-03-01T01:36:53;1.50;96.20
57552;DHT22;43379;48.160;14.036;2023-03-01T01:39:20;1.40;96.20
57552;DHT22;43379;48.160;14.036;2023-03-01T01:41:46;1.40;96.40
57552;DHT22;43379;48.160;14.036;2023-03-01T01:44:20;1.40;96.30
57552;DHT22;43379;48.160;14.036;2023-03-01T01:46:54;1.40;96.30
57552;DHT22;43379;48.160;14.036;2023-03-01T01:52:04;1.30;96.80
57552;DHT22;43379;48.160;14.036;2023-03-01T01:54:45;1.30;96.50
57552;DHT22;43379;48.160;14.036;2023-03-01T01:57:18;1.40;96.30
57552;DHT22;43379;48.160;14.036;2023-03-01T01:59:47;1.40;96.20
57552;DHT22;43379;48.160;14.036;2023-03-01T02:02:14;1.30;96.20
57552;DHT22;43379;48.160;14.036;2023-03-01T02:04:41;1.40;96.10
57552;DHT22;43379;48.160;14.036;2023-03-01T02:07:16;1.30;96.00
57552;DHT22;43379;48.160;14.036;2023-03-01T02:09:46;1.40;96.10
57552;DHT22;43379;48.160;14.036;2023-03-01T02:12:17;1.40;96.10
57552;DHT22;43379;48.160;14.036;2023-03-01T02:14:44;1.40;96.20
57552;DHT22;43379;48.160;14.036;2023-03-01T02:17:11;1.30;96.20
57552;DHT22;43379;48.160;14.036;2023-03-01T02:22:23;1.40;96.20
57552;DHT22;43379;48.160;14.036;2023-03-01T02:27:40;1.40;96.20
57552;DHT22;43379;48.160;14.036;2023-03-01T02:30:08;1.40;96.40
57552;DHT22;43379;48.160;14.036;2023-03-01T02:32:41;1.40;96.10
57552;DHT22;43379;48.160;14.036;2023-03-01T02:35:10;1.30;96.20
57552;DHT22;43379;48.160;14.036;2023-03-01T02:37:37;1.30;96.30
57552;DHT22;43379;48.160;14.036;2023-03-01T02:40:06;1.30;96.20
57552;DHT22;43379;48.160;14.036;2023-03-01T02:42:45;1.30;96.20
57552;DHT22;43379;48.160;14.036;2023-03-01T02:45:12;1.30;96.10
57552;DHT22;43379;48.160;14.036;2023-03-01T02:47:38;1.20;96.20
57552;DHT22;43379;48.160;14.036;2023-03-01T02:55:42;1.30;96.20
57552;DHT22;43379;48.160;14.036;2023-03-01T02:58:08;1.20;96.20
57552;DHT22;43379;48.160;14.036;2023-03-01T03:00:37;1.30;96.20
57552;DHT22;43379;48.160;14.036;2023-03-01T03:03:21;1.30;96.10
57552;DHT22;43379;48.160;14.036;2023-03-01T03:05:47;1.40;96.20
57552;DHT22;43379;48.160;14.036;2023-03-01T03:08:14;1.30;96.10
57552;DHT22;43379;48.160;14.036;2023-03-01T03:10:42;1.40;96.10
57552;DHT22;43379;48.160;14.036;2023-03-01T03:13:13;1.40;96.10
57552;DHT22;43379;48.160;14.036;2023-03-01T03:15:40;1.40;96.10
57552;DHT22;43379;48.160;14.036;2023-03-01T03:18:09;1.30;96.10
57552;DHT22;43379;48.160;14.036;2023-03-01T03:20:36;1.30;96.30
57552;DHT22;43379;48.160;14.036;2023-03-01T03:23:01;1.30;96.40
57552;DHT22;43379;48.160;14.036;2023-03-01T03:25:29;1.20;96.60
57552;DHT22;43379;48.160;14.036;2023-03-01T03:27:56;1.20;96.70
57552;DHT22;43379;48.160;14.036;2023-03-01T03:30:25;1.20;96.70
57552;DHT22;43379;48.160;14.036;2023-03-01T03:32:51;1.20;96.90
57552;DHT22;43379;48.160;14.036;2023-03-01T03:35:26;1.20;97.00
57552;DHT22;43379;48.160;14.036;2023-03-01T03:37:52;1.20;97.00
57552;DHT22;43379;48.160;14.036;2023-03-01T03:40:29;1.20;97.10
57552;DHT22;43379;48.160;14.036;2023-03-01T03:42:55;1.30;96.90
57552;DHT22;43379;48.160;14.036;2023-03-01T03:45:21;1.40;96.90
57552;DHT22;43379;48.160;14.036;2023-03-01T03:47:47;1.40;96.70
57552;DHT22;43379;48.160;14.036;2023-03-01T03:50:13;1.40;96.80
57552;DHT22;43379;48.160;14.036;2023-03-01T03:52:40;1.40;96.60
57552;DHT22;43379;48.160;14.036;2023-03-01T03:55:07;1.40;96.50
57552;DHT22;43379;48.160;14.036;2023-03-01T03:57:40;1.50;96.50
57552;DHT22;43379;48.160;14.036;2023-03-01T04:00:11;1.50;96.50
57552;DHT22;43379;48.160;14.036;2023-03-01T04:02:43;1.50;96.40
57552;DHT22;43379;48.160;14.036;2023-03-01T04:05:11;1.50;96.40
57552;DHT22;43379;48.160;14.036;2023-03-01T04:07:38;1.60;96.60
57552;DHT22;43379;48.160;14.036;2023-03-01T04:10:05;1.50;96.30
57552;DHT22;43379;48.160;14.036;2023-03-01T04:12:33;1.40;96.40
57552;DHT22;43379;48.160;14.036;2023-03-01T04:15:00;1.30;96.60
57552;DHT22;43379;48.160;14.036;2023-03-01T04:17:26;1.30;96.70
57552;DHT22;43379;48.160;14.036;2023-03-01T04:19:51;1.30;96.90
57552;DHT22;43379;48.160;14.036;2023-03-01T04:22:17;1.30;96.90
57552;DHT22;43379;48.160;14.036;2023-03-01T04:24:44;1.30;96.90
57552;DHT22;43379;48.160;14.036;2023-03-01T04:27:10;1.30;96.80
57552;DHT22;43379;48.160;14.036;2023-03-01T04:29:36;1.30;96.80
57552;DHT22;43379;48.160;14.036;2023-03-01T04:32:02;1.40;96.80
57552;DHT22;43379;48.160;14.036;2023-03-01T04:34:29;1.30;96.90
57552;DHT22;43379;48.160;14.036;2023-03-01T04:36:55;1.20;97.10
57552;DHT22;43379;48.160;14.036;2023-03-01T04:39:21;1.20;97.00
57552;DHT22;43379;48.160;14.036;2023-03-01T04:41:47;1.10;97.10
57552;DHT22;43379;48.160;14.036;2023-03-01T04:44:12;1.10;97.20
57552;DHT22;43379;48.160;14.036;2023-03-01T04:46:38;1.20;97.30
57552;DHT22;43379;48.160;14.036;2023-03-01T04:49:04;1.20;97.30
57552;DHT22;43379;48.160;14.036;2023-03-01T04:51:30;1.10;97.30
57552;DHT22;43379;48.160;14.036;2023-03-01T04:53:58;1.10;97.30
57552;DHT22;43379;48.160;14.036;2023-03-01T04:56:23;1.10;97.50
57552;DHT22;43379;48.160;14.036;2023-03-01T04:58:49;1.10;97.60
57552;DHT22;43379;48.160;14.036;2023-03-01T05:01:18;1.10;97.30
57552;DHT22;43379;48.160;14.036;2023-03-01T05:03:50;1.00;97.60
57552;DHT22;43379;48.160;14.036;2023-03-01T05:06:16;1.00;97.70
57552;DHT22;43379;48.160;14.036;2023-03-01T05:08:43;0.90;97.80
57552;DHT22;43379;48.160;14.036;2023-03-01T05:11:09;0.80;97.90
57552;DHT22;43379;48.160;14.036;2023-03-01T05:13:37;0.80;98.00
57552;DHT22;43379;48.160;14.036;2023-03-01T05:16:08;0.80;98.20
57552;DHT22;43379;48.160;14.036;2023-03-01T05:18:36;0.70;98.40
57552;DHT22;43379;48.160;14.036;2023-03-01T05:21:06;0.80;98.40
57552;DHT22;43379;48.160;14.036;2023-03-01T05:23:33;0.80;98.20
57552;DHT22;43379;48.160;14.036;2023-03-01T05:26:00;0.80;98.30
57552;DHT22;43379;48.160;14.036;2023-03-01T05:28:26;0.80;98.30
57552;DHT22;43379;48.160;14.036;2023-03-01T05:30:53;0.90;98.30
57552;DHT22;43379;48.160;14.036;2023-03-01T05:33:19;0.90;98.30
57552;DHT22;43379;48.160;14.036;2023-03-01T05:35:47;0.90;98.30
57552;DHT22;43379;48.160;14.036;2023-03-01T05:38:15;0.80;98.30
57552;DHT22;43379;48.160;14.036;2023-03-01T05:40:42;0.90;98.40
57552;DHT22;43379;48.160;14.036;2023-03-01T05:43:09;0.80;98.40
57552;DHT22;43379;48.160;14.036;2023-03-01T05:45:36;0.80;98.50
57552;DHT22;43379;48.160;14.036;2023-03-01T05:48:02;0.70;98.60
57552;DHT22;43379;48.160;14.036;2023-03-01T05:50:29;0.80;98.60
57552;DHT22;43379;48.160;14.036;2023-03-01T05:55:24;0.50;99.10
57552;DHT22;43379;48.160;14.036;2023-03-01T05:57:50;0.60;99.20
57552;DHT22;43379;48.160;14.036;2023-03-01T06:00:18;0.60;99.10
57552;DHT22;43379;48.160;14.036;2023-03-01T06:02:44;0.70;99.10
57552;DHT22;43379;48.160;14.036;2023-03-01T06:05:12;0.70;99.00
57552;DHT22;43379;48.160;14.036;2023-03-01T06:07:38;0.80;99.10
57552;DHT22;43379;48.160;14.036;2023-03-01T06:10:05;0.70;99.10
57552;DHT22;43379;48.160;14.036;2023-03-01T06:12:33;0.70;99.10
57552;DHT22;43379;48.160;14.036;2023-03-01T06:14:59;0.80;99.00
57552;DHT22;43379;48.160;14.036;2023-03-01T06:17:25;0.80;99.00
57552;DHT22;43379;48.160;14.036;2023-03-01T06:19:51;0.80;99.00
57552;DHT22;43379;48.160;14.036;2023-03-01T06:22:16;0.80;99.10
57552;DHT22;43379;48.160;14.036;2023-03-01T06:24:42;0.70;99.30
57552;DHT22;43379;48.160;14.036;2023-03-01T06:27:08;0.80;99.10
57552;DHT22;43379;48.160;14.036;2023-03-01T06:29:33;0.80;99.00
57552;DHT22;43379;48.160;14.036;2023-03-01T06:31:59;0.90;99.10
57552;DHT22;43379;48.160;14.036;2023-03-01T06:34:25;0.90;99.00
57552;DHT22;43379;48.160;14.036;2023-03-01T06:36:50;0.90;99.10
57552;DHT22;43379;48.160;14.036;2023-03-01T06:39:16;0.70;99.00
57552;DHT22;43379;48.160;14.036;2023-03-01T06:41:43;0.70;99.40
57552;DHT22;43379;48.160;14.036;2023-03-01T06:44:09;0.80;99.40
57552;DHT22;43379;48.160;14.036;2023-03-01T06:46:34;0.90;99.30
57552;DHT22;43379;48.160;14.036;2023-03-01T06:49:00;0.90;99.20
57552;DHT22;43379;48.160;14.036;2023-03-01T06:51:26;0.90;99.20
57552;DHT22;43379;48.160;14.036;2023-03-01T06:53:51;0.80;99.30
57552;DHT22;43379;48.160;14.036;2023-03-01T06:56:17;0.80;99.40
57552;DHT22;43379;48.160;14.036;2023-03-01T06:58:42;0.90;99.50
57552;DHT22;43379;48.160;14.036;2023-03-01T07:01:08;0.80;99.40
57552;DHT22;43379;48.160;14.036;2023-03-01T07:03:34;1.00;99.70
57552;DHT22;43379;48.160;14.036;2023-03-01T07:06:00;1.40;99.90
57552;DHT22;43379;48.160;14.036;2023-03-01T07:08:26;2.10;98.90
57552;DHT22;43379;48.160;14.036;2023-03-01T07:10:58;3.00;97.50
57552;DHT22;43379;48.160;14.036;2023-03-01T07:13:24;4.50;96.70
57552;DHT22;43379;48.160;14.036;2023-03-01T07:15:50;5.60;96.90
57552;DHT22;43379;48.160;14.036;2023-03-01T07:18:16;6.70;92.70
57552;DHT22;43379;48.160;14.036;2023-03-01T07:20:42;7.50;90.30
57552;DHT22;43379;48.160;14.036;2023-03-01T07:23:07;8.50;86.80
57552;DHT22;43379;48.160;14.036;2023-03-01T07:25:33;9.30;86.90
57552;DHT22;43379;48.160;14.036;2023-03-01T07:27:59;10.20;83.30
57552;DHT22;43379;48.160;14.036;2023-03-01T07:30:25;11.00;78.00
57552;DHT22;43379;48.160;14.036;2023-03-01T07:32:54;11.10;74.60
57552;DHT22;43379;48.160;14.036;2023-03-01T07:35:21;12.10;73.80
57552;DHT22;43379;48.160;14.036;2023-03-01T07:37:47;12.30;66.80
57552;DHT22;43379;48.160;14.036;2023-03-01T07:40:12;12.70;67.90
57552;DHT22;43379;48.160;14.036;2023-03-01T07:42:38;12.60;66.60
57552;DHT22;43379;48.160;14.036;2023-03-01T07:45:05;12.70;65.40
57552;DHT22;43379;48.160;14.036;2023-03-01T07:47:32;12.70;67.10
57552;DHT22;43379;48.160;14.036;2023-03-01T07:49:57;14.00;63.80
57552;DHT22;43379;48.160;14.036;2023-03-01T07:52:23;15.00;60.40
57552;DHT22;43379;48.160;14.036;2023-03-01T07:54:49;13.80;56.60
57552;DHT22;43379;48.160;14.036;2023-03-01T07:57:15;13.90;60.50
57552;DHT22;43379;48.160;14.036;2023-03-01T07:59:40;14.70;58.50
57552;DHT22;43379;48.160;14.036;2023-03-01T08:02:07;15.00;56.40
57552;DHT22;43379;48.160;14.036;2023-03-01T08:04:33;15.50;58.30
57552;DHT22;43379;48.160;14.036;2023-03-01T08:06:59;15.20;54.80
57552;DHT22;43379;48.160;14.036;2023-03-01T08:09:24;16.20;58.50
57552;DHT22;43379;48.160;14.036;2023-03-01T08:11:50;15.50;53.30
57552;DHT22;43379;48.160;14.036;2023-03-01T08:14:16;15.20;54.40
57552;DHT22;43379;48.160;14.036;2023-03-01T08:16:41;16.40;56.40
57552;DHT22;43379;48.160;14.036;2023-03-01T08:19:09;16.20;52.30
57552;DHT22;43379;48.160;14.036;2023-03-01T08:21:35;16.20;55.10
57552;DHT22;43379;48.160;14.036;2023-03-01T08:24:02;15.70;52.40
57552;DHT22;43379;48.160;14.036;2023-03-01T08:26:28;15.80;53.70
57552;DHT22;43379;48.160;14.036;2023-03-01T08:28:54;15.20;52.90
57552;DHT22;43379;48.160;14.036;2023-03-01T08:31:23;14.70;53.70
57552;DHT22;43379;48.160;14.036;2023-03-01T08:33:51;14.20;54.80
57552;DHT22;43379;48.160;14.036;2023-03-01T08:36:21;13.60;53.80
57552;DHT22;43379;48.160;14.036;2023-03-01T08:38:46;14.40;55.40
57552;DHT22;43379;48.160;14.036;2023-03-01T08:41:12;16.00;55.60
57552;DHT22;43379;48.160;14.036;2023-03-01T08:43:38;16.20;52.50
57552;DHT22;43379;48.160;14.036;2023-03-01T08:46:04;17.00;52.00
57552;DHT22;43379;48.160;14.036;2023-03-01T08:48:29;17.10;50.50
57552;DHT22;43379;48.160;14.036;2023-03-01T08:50:56;16.50;51.50
57552;DHT22;43379;48.160;14.036;2023-03-01T08:53:21;16.20;51.20
57552;DHT22;43379;48.160;14.036;2023-03-01T08:55:47;16.80;52.00
57552;DHT22;43379;48.160;14.036;2023-03-01T08:58:13;17.70;50.80
57552;DHT22;43379;48.160;14.036;2023-03-01T09:00:39;17.30;50.50
57552;DHT22;43379;48.160;14.036;2023-03-01T09:03:05;16.30;49.60
57552;DHT22;43379;48.160;14.036;2023-03-01T09:05:32;15.60;50.70
57552;DHT22;43379;48.160;14.036;2023-03-01T09:07:58;15.70;51.70
57552;DHT22;43379;48.160;14.036;2023-03-01T09:10:23;16.10;50.60
57552;DHT22;43379;48.160;14.036;2023-03-01T09:12:49;16.20;49.50
57552;DHT22;43379;48.160;14.036;2023-03-01T09:15:16;16.40;51.60
57552;DHT22;43379;48.160;14.036;2023-03-01T09:17:41;17.10;50.10
57552;DHT22;43379;48.160;14.036;2023-03-01T09:20:08;16.40;49.70
57552;DHT22;43379;48.160;14.036;2023-03-01T09:22:34;16.00;49.80
57552;DHT22;43379;48.160;14.036;2023-03-01T09:25:00;14.40;50.50
57552;DHT22;43379;48.160;14.036;2023-03-01T09:27:26;14.00;51.90
57552;DHT22;43379;48.160;14.036;2023-03-01T09:29:52;13.80;52.40
57552;DHT22;43379;48.160;14.036;2023-03-01T09:32:17;13.60;53.00
57552;DHT22;43379;48.160;14.036;2023-03-01T09:34:43;13.00;54.00
57552;DHT22;43379;48.160;14.036;2023-03-01T09:37:29;12.70;54.40
57552;DHT22;43379;48.160;14.036;2023-03-01T09:39:55;12.10;54.70
57552;DHT22;43379;48.160;14.036;2023-03-01T09:42:21;12.20;57.40
57552;DHT22;43379;48.160;14.036;2023-03-01T09:45:04;12.00;55.30
57552;DHT22;43379;48.160;14.036;2023-03-01T09:47:32;12.30;56.50
57552;DHT22;43379;48.160;14.036;2023-03-01T09:52:46;14.60;54.20
57552;DHT22;43379;48.160;14.036;2023-03-01T09:55:17;12.80;53.60
57552;DHT22;43379;48.160;14.036;2023-03-01T09:57:50;12.70;56.00
57552;DHT22;43379;48.160;14.036;2023-03-01T10:00:41;12.90;55.40
57552;DHT22;43379;48.160;14.036;2023-03-01T10:03:39;13.00;55.20
57552;DHT22;43379;48.160;14.036;2023-03-01T10:06:21;12.80;55.90
57552;DHT22;43379;48.160;14.036;2023-03-01T10:09:18;11.80;57.20
57552;DHT22;43379;48.160;14.036;2023-03-01T10:11:51;11.90;57.30
57552;DHT22;43379;48.160;14.036;2023-03-01T10:17:12;11.30;57.90
57552;DHT22;43379;48.160;14.036;2023-03-01T10:19:44;10.80;58.30
57552;DHT22;43379;48.160;14.036;2023-03-01T10:22:18;10.20;60.60
57552;DHT22;43379;48.160;14.036;2023-03-01T10:24:44;10.10;60.80
57552;DHT22;43379;48.160;14.036;2023-03-01T10:27:29;10.10;61.70
57552;DHT22;43379;48.160;14.036;2023-03-01T10:32:34;8.90;65.50
57552;DHT22;43379;48.160;14.036;2023-03-01T10:35:00;8.70;67.10
57552;DHT22;43379;48.160;14.036;2023-03-01T10:37:26;8.60;67.40
57552;DHT22;43379;48.160;14.036;2023-03-01T10:40:05;8.60;68.80
57552;DHT22;43379;48.160;14.036;2023-03-01T10:42:54;8.10;69.70
57552;DHT22;43379;48.160;14.036;2023-03-01T10:48:24;7.80;72.60
57552;DHT22;43379;48.160;14.036;2023-03-01T10:53:27;7.70;73.70
57552;DHT22;43379;48.160;14.036;2023-03-01T10:56:04;7.90;74.70
57552;DHT22;43379;48.160;14.036;2023-03-01T10:58:31;8.10;73.80
57552;DHT22;43379;48.160;14.036;2023-03-01T11:00:59;8.10;73.40
57552;DHT22;43379;48.160;14.036;2023-03-01T11:03:32;7.90;74.60
57552;DHT22;43379;48.160;14.036;2023-03-01T11:06:03;7.70;74.60
57552;DHT22;43379;48.160;14.036;2023-03-01T11:16:27;8.00;76.50
57552;DHT22;43379;48.160;14.036;2023-03-01T11:19:24;8.10;76.90
57552;DHT22;43379;48.160;14.036;2023-03-01T11:22:12;8.20;76.10
57552;DHT22;43379;48.160;14.036;2023-03-01T11:24:41;8.50;76.80
57552;DHT22;43379;48.160;14.036;2023-03-01T11:27:20;8.80;76.40
57552;DHT22;43379;48.160;14.036;2023-03-01T11:32:43;8.90;74.90
57552;DHT22;43379;48.160;14.036;2023-03-01T11:35:22;9.20;76.20
57552;DHT22;43379;48.160;14.036;2023-03-01T11:40:42;9.30;75.20
57552;DHT22;43379;48.160;14.036;2023-03-01T11:54:53;9.80;75.00
57552;DHT22;43379;48.160;14.036;2023-03-01T12:08:33;9.60;77.70
57552;DHT22;43379;48.160;14.036;2023-03-01T12:14:05;9.50;77.40
57552;DHT22;43379;48.160;14.036;2023-03-01T12:16:38;9.50;77.30
57552;DHT22;43379;48.160;14.036;2023-03-01T12:27:26;9.30;77.50
57552;DHT22;43379;48.160;14.036;2023-03-01T12:36:09;9.00;80.80
57552;DHT22;43379;48.160;14.036;2023-03-01T12:44:31;9.70;79.80
57552;DHT22;43379;48.160;14.036;2023-03-01T12:50:02;9.80;79.60
57552;DHT22;43379;48.160;14.036;2023-03-01T12:54:58;9.60;80.40
57552;DHT22;43379;48.160;14.036;2023-03-01T12:57:28;9.50;80.80
57552;DHT22;43379;48.160;14.036;2023-03-01T13:02:48;9.40;80.70
57552;DHT22;43379;48.160;14.036;2023-03-01T13:05:29;9.30;81.40
57552;DHT22;43379;48.160;14.036;2023-03-01T13:10:49;9.80;82.70
57552;DHT22;43379;48.160;14.036;2023-03-01T13:13:24;9.70;81.40
57552;DHT22;43379;48.160;14.036;2023-03-01T13:15:51;9.60;81.30
57552;DHT22;43379;48.160;14.036;2023-03-01T13:20:48;9.50;82.50
57552;DHT22;43379;48.160;14.036;2023-03-01T13:26:12;9.40;83.60
57552;DHT22;43379;48.160;14.036;2023-03-01T13:28:46;9.20;82.70
57552;DHT22;43379;48.160;14.036;2023-03-01T13:33:43;9.30;84.70
57552;DHT22;43379;48.160;14.036;2023-03-01T13:36:10;9.30;85.30
57552;DHT22;43379;48.160;14.036;2023-03-01T13:38:48;9.30;84.50
57552;DHT22;43379;48.160;14.036;2023-03-01T13:41:16;9.50;84.70
57552;DHT22;43379;48.160;14.036;2023-03-01T13:43:44;9.60;84.50
57552;DHT22;43379;48.160;14.036;2023-03-01T13:46:17;9.80;84.60
57552;DHT22;43379;48.160;14.036;2023-03-01T13:48:51;9.70;84.10
57552;DHT22;43379;48.160;14.036;2023-03-01T13:51:30;9.70;84.30
57552;DHT22;43379;48.160;14.036;2023-03-01T13:53:57;9.60;84.30
57552;DHT22;43379;48.160;14.036;2023-03-01T13:56:28;9.70;84.70
57552;DHT22;43379;48.160;14.036;2023-03-01T13:59:02;9.70;84.50
57552;DHT22;43379;48.160;14.036;2023-03-01T14:01:34;9.60;83.90
57552;DHT22;43379;48.160;14.036;2023-03-01T14:04:02;9.50;84.20
57552;DHT22;43379;48.160;14.036;2023-03-01T14:06:30;9.40;84.70
57552;DHT22;43379;48.160;14.036;2023-03-01T14:09:04;9.30;84.70
57552;DHT22;43379;48.160;14.036;2023-03-01T14:14:52;9.10;83.70
57552;DHT22;43379;48.160;14.036;2023-03-01T14:20:24;8.90;84.10
57552;DHT22;43379;48.160;14.036;2023-03-01T14:22:54;8.90;84.90
57552;DHT22;43379;48.160;14.036;2023-03-01T14:25:31;8.80;85.70
57552;DHT22;43379;48.160;14.036;2023-03-01T14:27:58;8.70;85.60
57552;DHT22;43379;48.160;14.036;2023-03-01T14:30:27;8.80;86.00
57552;DHT22;43379;48.160;14.036;2023-03-01T14:33:01;8.90;85.90
57552;DHT22;43379;48.160;14.036;2023-03-01T14:35:35;8.80;86.10
57552;DHT22;43379;48.160;14.036;2023-03-01T14:38:02;8.80;86.50
57552;DHT22;43379;48.160;14.036;2023-03-01T14:42:55;8.90;85.90
57552;DHT22;43379;48.160;14.036;2023-03-01T14:45:22;8.90;86.10
57552;DHT22;43379;48.160;14.036;2023-03-01T14:47:49;8.90;86.50
57552;DHT22;43379;48.160;14.036;2023-03-01T14:50:34;8.90;86.80
57552;DHT22;43379;48.160;14.036;2023-03-01T14:53:03;8.80;86.30
57552;DHT22;43379;48.160;14.036;2023-03-01T14:55:30;8.90;86.40
57552;DHT22;43379;48.160;14.036;2023-03-01T14:57:57;9.00;86.40
57552;DHT22;43379;48.160;14.036;2023-03-01T15:00:29;8.90;86.80
57552;DHT22;43379;48.160;14.036;2023-03-01T15:02:57;8.90;86.80
57552;DHT22;43379;48.160;14.036;2023-03-01T15:05:29;9.00;88.10
57552;DHT22;43379;48.160;14.036;2023-03-01T15:07:57;8.90;87.20
57552;DHT22;43379;48.160;14.036;2023-03-01T15:10:32;8.90;87.10
57552;DHT22;43379;48.160;14.036;2023-03-01T15:13:24;8.80;87.00
57552;DHT22;43379;48.160;14.036;2023-03-01T15:15:51;8.70;88.00
57552;DHT22;43379;48.160;14.036;2023-03-01T15:18:21;8.50;87.80
57552;DHT22;43379;48.160;14.036;2023-03-01T15:20:49;8.50;88.40
57552;DHT22;43379;48.160;14.036;2023-03-01T15:23:24;8.40;88.80
57552;DHT22;43379;48.160;14.036;2023-03-01T15:25:52;8.40;89.20
57552;DHT22;43379;48.160;14.036;2023-03-01T15:28:30;8.50;89.60
57552;DHT22;43379;48.160;14.036;2023-03-01T15:31:03;8.50;89.70
57552;DHT22;43379;48.160;14.036;2023-03-01T15:33:33;8.50;89.20
57552;DHT22;43379;48.160;14.036;2023-03-01T15:36:01;8.60;89.20
57552;DHT22;43379;48.160;14.036;2023-03-01T15:38:32;8.50;89.50
57552;DHT22;43379;48.160;14.036;2023-03-01T15:41:01;8.50;89.60
57552;DHT22;43379;48.160;14.036;2023-03-01T15:43:43;8.40;90.00
57552;DHT22;43379;48.160;14.036;2023-03-01T15:46:18;8.40;90.00
57552;DHT22;43379;48.160;14.036;2023-03-01T15:48:46;8.30;90.10
57552;DHT22;43379;48.160;14.036;2023-03-01T15:51:14;8.20;90.30
57552;DHT22;43379;48.160;14.036;2023-03-01T15:53:41;8.20;90.30
57552;DHT22;43379;48.160;14.036;2023-03-01T15:56:09;8.10;90.60
57552;DHT22;43379;48.160;14.036;2023-03-01T15:58:34;8.10;90.70
57552;DHT22;43379;48.160;14.036;2023-03-01T16:01:00;8.00;90.80
57552;DHT22;43379;48.160;14.036;2023-03-01T16:03:26;8.00;90.90
57552;DHT22;43379;48.160;14.036;2023-03-01T16:05:51;8.00;90.70
57552;DHT22;43379;48.160;14.036;2023-03-01T16:08:18;8.00;90.70
57552;DHT22;43379;48.160;14.036;2023-03-01T16:10:44;7.90;90.70
57552;DHT22;43379;48.160;14.036;2023-03-01T16:13:12;7.90;90.60
57552;DHT22;43379;48.160;14.036;2023-03-01T16:15:38;7.80;90.70
57552;DHT22;43379;48.160;14.036;2023-03-01T16:18:05;7.70;90.80
57552;DHT22;43379;48.160;14.036;2023-03-01T16:20:33;7.50;90.80
57552;DHT22;43379;48.160;14.036;2023-03-01T16:23:00;7.40;90.90
57552;DHT22;43379;48.160;14.036;2023-03-01T16:25:27;7.40;90.80
57552;DHT22;43379;48.160;14.036;2023-03-01T16:27:53;7.30;91.30
57552;DHT22;43379;48.160;14.036;2023-03-01T16:30:21;7.30;91.00
57552;DHT22;43379;48.160;14.036;2023-03-01T16:32:48;7.30;91.10
57552;DHT22;43379;48.160;14.036;2023-03-01T16:35:17;7.20;91.20
57552;DHT22;43379;48.160;14.036;2023-03-01T16:37:43;7.10;91.30
57552;DHT22;43379;48.160;14.036;2023-03-01T16:40:25;7.10;91.40
57552;DHT22;43379;48.160;14.036;2023-03-01T16:42:52;7.00;91.40
57552;DHT22;43379;48.160;14.036;2023-03-01T16:45:19;7.00;91.30
57552;DHT22;43379;48.160;14.036;2023-03-01T16:47:45;6.90;91.40
57552;DHT22;43379;48.160;14.036;2023-03-01T16:50:11;7.00;91.50
57552;DHT22;43379;48.160;14.036;2023-03-01T16:52:37;6.90;91.50
57552;DHT22;43379;48.160;14.036;2023-03-01T16:55:04;6.80;91.70
57552;DHT22;43379;48.160;14.036;2023-03-01T16:57:30;6.70;91.80
57552;DHT22;43379;48.160;14.036;2023-03-01T16:59:56;6.70;91.90
57552;DHT22;43379;48.160;14.036;2023-03-01T17:02:22;6.70;92.00
57552;DHT22;43379;48.160;14.036;2023-03-01T17:04:54;6.70;92.10
57552;DHT22;43379;48.160;14.036;2023-03-01T17:07:21;6.60;92.00
57552;DHT22;43379;48.160;14.036;2023-03-01T17:09:46;6.60;92.10
57552;DHT22;43379;48.160;14.036;2023-03-01T17:12:13;6.50;92.20
57552;DHT22;43379;48.160;14.036;2023-03-01T17:14:39;6.50;92.20
57552;DHT22;43379;48.160;14.036;2023-03-01T17:17:08;6.60;92.30
57552;DHT22;43379;48.160;14.036;2023-03-01T17:19:33;6.60;92.30
57552;DHT22;43379;48.160;14.036;2023-03-01T17:22:01;6.60;92.40
57552;DHT22;43379;48.160;14.036;2023-03-01T17:24:27;6.50;92.40
57552;DHT22;43379;48.160;14.036;2023-03-01T17:26:54;6.50;92.50
57552;DHT22;43379;48.160;14.036;2023-03-01T17:29:20;6.60;92.60
57552;DHT22;43379;48.160;14.036;2023-03-01T17:31:45;6.50;92.70
57552;DHT22;43379;48.160;14.036;2023-03-01T17:34:11;6.50;92.70